createdAt,value
2019-01-03T00:02:41.182Z,1
2019-01-03T00:07:43.730Z,1
2019-01-03T00:12:46.095Z,1
2019-01-03T00:17:48.542Z,2
2019-01-03T00:22:50.987Z,1
2019-01-03T00:27:53.547Z,1
2019-01-03T00:32:55.914Z,1
2019-01-03T00:37:58.355Z,1
2019-01-03T00:43:00.847Z,1
2019-01-03T00:48:03.291Z,1
2019-01-03T00:53:05.726Z,2
2019-01-03T00:58:08.189Z,1
2019-01-03T01:03:10.660Z,1
2019-01-03T01:08:13.131Z,2
2019-01-03T01:13:15.565Z,1
2019-01-03T01:18:18.062Z,1
2019-01-03T01:23:20.503Z,1
2019-01-03T01:28:22.927Z,1
2019-01-03T01:33:25.395Z,2
2019-01-03T01:38:27.981Z,1
2019-01-03T01:43:30.610Z,1
2019-01-03T01:48:32.787Z,1
2019-01-03T01:53:35.219Z,1
2019-01-03T01:58:37.686Z,1
2019-01-03T02:03:40.146Z,1
2019-01-03T02:08:42.588Z,2
2019-01-03T02:13:45.056Z,2
2019-01-03T02:18:47.585Z,1
2019-01-03T02:23:50.025Z,1
2019-01-03T02:28:52.428Z,1
2019-01-03T02:33:54.897Z,1
2019-01-03T02:38:57.326Z,1
2019-01-03T02:43:59.832Z,2
2019-01-03T02:49:02.334Z,2
2019-01-03T02:54:04.713Z,3
2019-01-03T02:59:07.206Z,2
2019-01-03T03:04:09.647Z,2
2019-01-03T03:09:12.091Z,2
2019-01-03T03:14:14.568Z,2
2019-01-03T03:19:17.015Z,2
2019-01-03T03:24:19.470Z,2
2019-01-03T03:29:21.923Z,3
2019-01-03T03:34:24.386Z,2
2019-01-03T03:39:26.838Z,3
2019-01-03T03:44:29.285Z,3
2019-01-03T03:49:31.759Z,3
2019-01-03T03:54:34.215Z,3
2019-01-03T03:59:36.682Z,3
2019-01-03T04:04:39.119Z,3
2019-01-03T04:09:41.967Z,3
2019-01-03T04:14:44.065Z,3
2019-01-03T04:19:46.502Z,3
2019-01-03T04:24:48.977Z,4
2019-01-03T04:29:51.511Z,3
2019-01-03T04:34:53.882Z,3
2019-01-03T04:39:56.330Z,4
2019-01-03T04:44:58.783Z,3
2019-01-03T04:50:01.334Z,4
2019-01-03T04:55:03.727Z,4
2019-01-03T05:00:06.215Z,4
2019-01-03T05:05:08.666Z,4
2019-01-03T05:10:11.114Z,4
2019-01-03T05:15:18.545Z,3
2019-01-03T05:20:15.999Z,3
2019-01-03T05:25:18.486Z,4
2019-01-03T05:30:21.136Z,4
2019-01-03T05:35:23.513Z,4
2019-01-03T05:40:25.839Z,4
2019-01-03T05:45:28.289Z,3
2019-01-03T05:50:30.770Z,4
2019-01-03T05:55:33.224Z,3
2019-01-03T06:00:35.705Z,3
2019-01-03T06:05:38.130Z,3
2019-01-03T06:10:40.584Z,3
2019-01-03T06:15:43.054Z,4
2019-01-03T06:20:45.527Z,4
2019-01-03T06:25:47.967Z,3
2019-01-03T06:30:50.449Z,3
2019-01-03T06:35:53.749Z,3
2019-01-03T06:40:55.354Z,3
2019-01-03T06:45:57.821Z,3
2019-01-03T06:51:00.269Z,2
2019-01-03T06:56:02.744Z,2
2019-01-03T07:01:05.183Z,2
2019-01-03T07:06:07.664Z,1
2019-01-03T07:11:10.130Z,2
2019-01-03T07:16:12.642Z,2
2019-01-03T07:21:15.024Z,2
2019-01-03T07:26:17.517Z,1
2019-01-03T07:31:20.044Z,1
2019-01-03T07:36:22.406Z,1
2019-01-03T07:41:24.874Z,1
2019-01-03T07:46:27.397Z,1
2019-01-03T07:51:29.847Z,2
2019-01-03T07:56:32.312Z,1
2019-01-03T08:01:34.720Z,2
2019-01-03T08:06:37.209Z,1
2019-01-03T08:11:39.678Z,1
2019-01-03T08:16:42.118Z,1
2019-01-03T08:21:44.572Z,2
2019-01-03T08:26:47.094Z,2
2019-01-03T08:31:49.488Z,2
2019-01-03T08:36:52.298Z,1
2019-01-03T08:41:54.438Z,2
2019-01-03T08:46:56.913Z,1
2019-01-03T08:51:59.392Z,2
2019-01-03T08:57:01.819Z,1
2019-01-03T09:02:04.324Z,1
2019-01-03T09:07:06.855Z,1
2019-01-03T09:12:09.234Z,2
2019-01-03T09:17:11.678Z,1
2019-01-03T09:22:14.159Z,1
2019-01-03T09:27:16.616Z,2
2019-01-03T09:32:19.157Z,1
2019-01-03T09:37:26.786Z,2
2019-01-03T09:42:24.001Z,2
2019-01-03T09:47:26.534Z,1
2019-01-03T09:52:28.949Z,1
2019-01-03T09:57:31.478Z,2
2019-01-03T10:02:33.864Z,1
2019-01-03T10:07:36.333Z,1
2019-01-03T10:12:38.783Z,1
2019-01-03T10:17:41.259Z,1
2019-01-03T10:22:43.723Z,2
2019-01-03T10:27:46.210Z,1
2019-01-03T10:32:48.639Z,1
2019-01-03T10:37:51.119Z,1
2019-01-03T10:42:53.575Z,1
2019-01-03T10:47:56.117Z,2
2019-01-03T10:52:58.507Z,1
2019-01-03T10:58:00.961Z,1
2019-01-03T11:03:03.477Z,2
2019-01-03T11:08:05.961Z,1
2019-01-03T11:13:08.359Z,1
2019-01-03T11:18:10.813Z,1
2019-01-03T11:23:13.278Z,1
2019-01-03T11:28:15.735Z,1
2019-01-03T11:33:18.202Z,1
2019-01-03T11:38:20.681Z,2
2019-01-03T11:43:23.113Z,1
2019-01-03T11:48:25.563Z,1
2019-01-03T11:53:28.055Z,1
2019-01-03T11:58:30.580Z,1
2019-01-03T12:03:32.946Z,1
2019-01-03T12:08:35.413Z,1
2019-01-03T12:13:37.891Z,1
2019-01-03T12:18:40.346Z,1
2019-01-03T12:23:42.790Z,1
2019-01-03T12:28:45.247Z,1
2019-01-03T12:33:47.959Z,2
2019-01-03T12:38:50.179Z,1
2019-01-03T12:43:52.641Z,1
2019-01-03T12:48:55.103Z,1
2019-01-03T12:53:57.564Z,2
2019-01-03T12:59:00.094Z,1
2019-01-03T13:04:02.529Z,2
2019-01-03T13:09:05.067Z,1
2019-01-03T13:14:07.426Z,1
2019-01-03T13:19:09.905Z,2
2019-01-03T13:24:12.355Z,2
2019-01-03T13:29:14.808Z,2
2019-01-03T13:34:17.367Z,1
2019-01-03T13:39:19.760Z,1
2019-01-03T13:44:22.222Z,4
2019-01-03T13:49:24.655Z,3
2019-01-03T13:54:27.144Z,4
2019-01-03T13:59:29.612Z,2
2019-01-03T14:04:32.066Z,2
2019-01-03T14:09:34.542Z,2
2019-01-03T14:14:37.026Z,2
2019-01-03T14:19:39.500Z,3
2019-01-03T14:24:41.946Z,3
2019-01-03T14:29:44.373Z,3
2019-01-03T14:34:46.867Z,3
2019-01-03T14:39:49.339Z,4
2019-01-03T14:44:51.800Z,4
2019-01-03T14:49:54.244Z,4
2019-01-03T14:54:56.699Z,4
2019-01-03T14:59:59.182Z,4
2019-01-03T15:05:01.657Z,7
2019-01-03T15:10:04.107Z,6
2019-01-03T15:15:06.569Z,5
2019-01-03T15:20:09.022Z,7
2019-01-03T15:25:11.478Z,9
2019-01-03T15:30:13.953Z,7
2019-01-03T15:35:16.418Z,8
2019-01-03T15:40:18.945Z,7
2019-01-03T15:45:21.346Z,8
2019-01-03T15:50:23.784Z,9
2019-01-03T15:55:26.258Z,8
2019-01-03T16:00:28.721Z,6
2019-01-03T16:05:31.313Z,6
2019-01-03T16:10:33.654Z,6
2019-01-03T16:15:36.101Z,7
2019-01-03T16:20:38.555Z,7
2019-01-03T16:25:41.205Z,6
2019-01-03T16:30:43.493Z,5
2019-01-03T16:35:48.071Z,4
2019-01-03T16:40:48.411Z,7
2019-01-03T16:45:50.848Z,6
2019-01-03T16:50:53.314Z,6
2019-01-03T16:55:55.768Z,7
2019-01-03T17:00:58.235Z,7
2019-01-03T17:06:00.722Z,7
2019-01-03T17:11:03.162Z,7
2019-01-03T17:16:05.607Z,8
2019-01-03T17:21:08.082Z,8
2019-01-03T17:26:10.838Z,9
2019-01-03T17:31:13.002Z,10
2019-01-03T17:36:15.474Z,11
2019-01-03T17:41:17.982Z,9
2019-01-03T17:46:20.412Z,10
2019-01-03T17:51:22.941Z,12
2019-01-03T17:56:25.310Z,12
2019-01-03T18:01:27.769Z,12
2019-01-03T18:06:30.240Z,11
2019-01-03T18:11:32.692Z,9
2019-01-03T18:16:35.168Z,11
2019-01-03T18:21:37.652Z,11
2019-01-03T18:26:40.078Z,10
2019-01-03T18:31:42.547Z,10
2019-01-03T18:36:45.007Z,12
2019-01-03T18:41:47.527Z,11
2019-01-03T18:46:49.928Z,11
2019-01-03T18:51:52.393Z,10
2019-01-03T18:56:54.893Z,9
2019-01-03T19:01:57.332Z,9
2019-01-03T19:06:59.778Z,12
2019-01-03T19:12:02.255Z,13
2019-01-03T19:17:04.712Z,13
2019-01-03T19:22:07.170Z,12
2019-01-03T19:27:09.649Z,14
2019-01-03T19:32:12.123Z,15
2019-01-03T19:37:14.566Z,14
2019-01-03T19:42:17.021Z,13
2019-01-03T19:47:19.467Z,13
2019-01-03T19:52:21.929Z,12
2019-01-03T19:57:24.424Z,13
2019-01-03T20:02:26.852Z,13
2019-01-03T20:12:31.778Z,14
2019-01-03T20:17:34.267Z,14
2019-01-03T20:22:36.706Z,14
2019-01-03T20:27:39.177Z,14
2019-01-03T20:32:41.617Z,14
2019-01-03T20:37:44.099Z,14
2019-01-03T20:42:46.566Z,15
2019-01-03T20:47:49.021Z,16
2019-01-03T20:52:51.469Z,15
2019-01-03T20:57:53.951Z,15
2019-01-03T21:02:56.456Z,16
2019-01-03T21:07:58.876Z,14
2019-01-03T21:13:01.381Z,16
2019-01-03T21:18:03.796Z,17
2019-01-03T21:23:06.249Z,17
2019-01-03T21:28:08.728Z,16
2019-01-03T21:33:11.190Z,17
2019-01-03T21:38:13.660Z,16
2019-01-03T21:43:16.146Z,17
2019-01-03T21:48:18.543Z,15
2019-01-03T21:53:21.023Z,15
2019-01-03T21:58:23.491Z,16
2019-01-03T22:03:25.983Z,17
2019-01-03T22:08:28.441Z,15
2019-01-03T22:13:30.890Z,16
2019-01-03T22:18:33.321Z,16
2019-01-03T22:23:35.801Z,16
2019-01-03T22:28:38.257Z,15
2019-01-03T22:33:40.710Z,14
2019-01-03T22:38:43.179Z,15
2019-01-03T22:43:45.726Z,16
2019-01-03T22:48:48.099Z,16
2019-01-03T22:53:50.561Z,15
2019-01-03T22:58:53.033Z,17
2019-01-03T23:03:55.481Z,15
2019-01-03T23:08:57.970Z,17
2019-01-03T23:14:00.398Z,15
2019-01-03T23:19:03.096Z,14
2019-01-03T23:24:05.347Z,13
2019-01-03T23:29:07.871Z,13
2019-01-03T23:34:10.232Z,14
2019-01-03T23:39:12.698Z,14
2019-01-03T23:44:15.165Z,12
2019-01-03T23:49:17.683Z,12
2019-01-03T23:54:20.079Z,12
2019-01-03T23:59:22.554Z,13
